createdAt,value
2024-03-06T00:02:22.058Z,12.42
2024-03-06T00:05:03.124Z,12.44
2024-03-06T00:07:54.325Z,12.60
2024-03-06T00:10:32.937Z,12.70
2024-03-06T00:13:20.058Z,12.81
2024-03-06T00:15:58.650Z,12.94
2024-03-06T00:18:36.454Z,13.08
2024-03-06T00:21:15.552Z,13.13
2024-03-06T00:24:01.053Z,13.25
2024-03-06T00:26:40.495Z,13.30
2024-03-06T00:29:18.910Z,13.33
2024-03-06T00:32:03.939Z,13.36
2024-03-06T00:34:44.139Z,13.43
2024-03-06T00:37:21.163Z,13.43
2024-03-06T00:39:56.221Z,13.52
2024-03-06T00:42:34.096Z,13.53
2024-03-06T00:45:21.389Z,13.52
2024-03-06T00:48:02.644Z,13.45
2024-03-06T00:51:00.549Z,13.31
2024-03-06T00:53:32.640Z,13.25
2024-03-06T00:56:08.667Z,13.18
2024-03-06T00:58:45.865Z,13.13
2024-03-06T01:01:26.210Z,13.12
2024-03-06T01:04:05.304Z,13.14
2024-03-06T01:06:50.212Z,13.19
2024-03-06T01:09:44.207Z,13.22
2024-03-06T01:12:33.256Z,13.25
2024-03-06T01:15:12.610Z,13.30
2024-03-06T01:18:01.186Z,13.24
2024-03-06T01:20:47.494Z,13.21
2024-03-06T01:23:30.093Z,13.00
2024-03-06T01:26:08.676Z,12.73
2024-03-06T01:28:47.567Z,12.58
2024-03-06T01:31:23.000Z,12.61
2024-03-06T01:34:02.395Z,12.56
2024-03-06T01:36:38.316Z,12.57
2024-03-06T01:39:16.207Z,12.60
2024-03-06T01:41:52.857Z,12.56
2024-03-06T01:44:32.254Z,12.60
2024-03-06T01:47:08.873Z,12.72
2024-03-06T01:50:01.413Z,12.75
2024-03-06T01:52:40.531Z,12.74
2024-03-06T01:55:23.594Z,12.75
2024-03-06T01:58:09.916Z,12.72
2024-03-06T02:00:43.195Z,12.73
2024-03-06T02:03:29.489Z,12.75
2024-03-06T02:06:11.579Z,12.71
2024-03-06T02:08:46.753Z,12.78
2024-03-06T02:11:21.360Z,12.76
2024-03-06T02:14:00.761Z,12.76
2024-03-06T02:16:41.597Z,12.79
2024-03-06T02:19:22.082Z,12.79
2024-03-06T02:22:16.323Z,12.81
2024-03-06T02:24:55.136Z,12.82
2024-03-06T02:27:39.417Z,12.84
2024-03-06T02:30:16.567Z,12.86
2024-03-06T02:33:03.624Z,12.87
2024-03-06T02:35:41.141Z,12.85
2024-03-06T02:38:25.138Z,12.82
2024-03-06T02:41:03.371Z,12.81
2024-03-06T02:43:43.355Z,12.81
2024-03-06T02:46:18.855Z,12.71
2024-03-06T02:48:57.407Z,12.70
2024-03-06T02:51:37.622Z,12.73
2024-03-06T02:54:23.342Z,12.71
2024-03-06T02:56:58.307Z,12.68
2024-03-06T02:59:40.790Z,12.65
2024-03-06T03:02:21.291Z,12.65
2024-03-06T03:05:05.329Z,12.66
2024-03-06T03:07:47.375Z,12.67
2024-03-06T03:10:31.414Z,12.64
2024-03-06T03:13:12.911Z,12.67
2024-03-06T03:16:02.277Z,12.68
2024-03-06T03:18:45.525Z,12.64
2024-03-06T03:21:32.427Z,12.50
2024-03-06T03:24:08.551Z,12.56
2024-03-06T03:26:53.353Z,12.51
2024-03-06T03:29:37.670Z,12.50
2024-03-06T03:32:17.286Z,12.48
2024-03-06T03:34:59.438Z,12.41
2024-03-06T03:37:42.835Z,12.22
2024-03-06T03:40:23.673Z,12.19
2024-03-06T03:43:10.881Z,12.06
2024-03-06T03:45:49.074Z,12.04
2024-03-06T03:48:31.947Z,11.97
2024-03-06T03:51:09.802Z,12.02
2024-03-06T03:53:53.824Z,11.95
2024-03-06T03:56:39.163Z,11.77
2024-03-06T03:59:28.010Z,11.93
2024-03-06T04:02:07.404Z,11.95
2024-03-06T04:04:43.950Z,11.95
2024-03-06T04:07:22.543Z,11.87
2024-03-06T04:10:07.042Z,11.82
2024-03-06T04:12:48.485Z,11.80
2024-03-06T04:15:31.202Z,11.75
2024-03-06T04:18:10.049Z,11.70
2024-03-06T04:21:02.766Z,11.59
2024-03-06T04:23:40.698Z,11.42
2024-03-06T04:26:22.310Z,11.21
2024-03-06T04:28:54.155Z,11.13
2024-03-06T04:31:53.473Z,11.07
2024-03-06T04:34:34.268Z,11.14
2024-03-06T04:37:11.661Z,11.03
2024-03-06T04:39:46.660Z,10.98
2024-03-06T04:42:27.798Z,11.07
2024-03-06T04:45:05.886Z,11.13
2024-03-06T04:47:59.685Z,11.15
2024-03-06T04:50:41.257Z,11.14
2024-03-06T04:53:23.080Z,11.27
2024-03-06T04:55:59.948Z,11.24
2024-03-06T04:58:38.456Z,11.32
2024-03-06T05:01:14.618Z,11.36
2024-03-06T05:59:15.422Z,11.49
2024-03-06T06:01:51.673Z,11.53
2024-03-06T06:04:27.110Z,11.51
2024-03-06T06:07:06.438Z,11.52
2024-03-06T06:09:47.818Z,11.56
2024-03-06T06:12:29.295Z,11.56
2024-03-06T06:15:06.219Z,11.57
2024-03-06T06:17:43.414Z,11.61
2024-03-06T06:20:34.006Z,11.61
2024-03-06T06:23:16.464Z,11.64
2024-03-06T06:25:53.644Z,11.66
2024-03-06T06:28:42.314Z,11.71
2024-03-06T06:31:16.385Z,11.78
2024-03-06T06:33:58.930Z,11.86
2024-03-06T06:36:34.736Z,11.87
2024-03-06T06:39:31.096Z,11.93
2024-03-06T06:42:10.462Z,12.03
2024-03-06T06:44:55.246Z,12.03
2024-03-06T06:47:31.851Z,12.01
2024-03-06T06:50:09.614Z,12.04
2024-03-06T06:52:49.580Z,12.04
2024-03-06T06:55:32.984Z,11.96
2024-03-06T06:58:13.313Z,12.12
2024-03-06T07:01:09.920Z,12.18
2024-03-06T07:03:50.965Z,12.15
2024-03-06T07:06:31.960Z,12.30
2024-03-06T07:09:15.885Z,12.39
2024-03-06T07:12:08.132Z,12.45
2024-03-06T07:14:48.083Z,12.51
2024-03-06T07:17:37.068Z,12.56
2024-03-06T07:20:27.751Z,12.61
2024-03-06T07:23:02.488Z,12.62
2024-03-06T07:25:46.052Z,12.70
2024-03-06T07:28:36.850Z,12.68
2024-03-06T07:31:21.159Z,12.71
2024-03-06T07:33:58.868Z,12.67
2024-03-06T07:36:38.168Z,12.73
2024-03-06T07:39:17.321Z,12.76
2024-03-06T07:42:06.681Z,12.75
2024-03-06T07:44:47.778Z,12.80
2024-03-06T07:47:25.797Z,12.84
2024-03-06T07:50:28.681Z,12.83
2024-03-06T07:53:00.088Z,12.89
2024-03-06T07:55:39.969Z,12.87
2024-03-06T07:58:19.216Z,12.88
2024-03-06T08:00:59.602Z,12.91
2024-03-06T08:03:39.779Z,12.94
2024-03-06T08:06:28.654Z,12.87
2024-03-06T08:09:12.720Z,12.91
2024-03-06T08:11:55.743Z,12.95
2024-03-06T08:14:33.762Z,12.91
2024-03-06T08:17:14.329Z,12.92
2024-03-06T08:19:59.670Z,12.97
2024-03-06T08:22:47.532Z,12.98
2024-03-06T08:25:24.120Z,13.02
2024-03-06T08:28:08.164Z,13.06
2024-03-06T08:30:50.390Z,13.07
2024-03-06T08:33:30.045Z,13.12
2024-03-06T08:36:07.244Z,13.15
2024-03-06T08:38:55.965Z,13.16
2024-03-06T08:41:36.604Z,13.18
2024-03-06T08:44:13.570Z,13.24
2024-03-06T08:46:53.541Z,13.30
2024-03-06T08:49:41.675Z,13.32
2024-03-06T08:52:23.552Z,13.39
2024-03-06T08:55:04.172Z,13.47
2024-03-06T08:57:51.839Z,13.55
2024-03-06T09:00:30.922Z,13.61
2024-03-06T09:03:10.223Z,13.72
2024-03-06T09:05:51.979Z,13.82
2024-03-06T09:08:30.810Z,13.86
2024-03-06T09:11:21.268Z,13.87
2024-03-06T09:14:08.881Z,13.87
2024-03-06T09:16:45.056Z,13.89
2024-03-06T09:19:19.817Z,13.97
2024-03-06T09:21:57.792Z,13.99
2024-03-06T09:24:48.799Z,14.01
2024-03-06T09:27:37.510Z,13.98
2024-03-06T09:30:30.709Z,14.00
2024-03-06T09:33:14.134Z,14.09
2024-03-06T09:35:53.795Z,14.15
2024-03-06T09:38:36.369Z,14.15
2024-03-06T09:41:16.230Z,14.17
2024-03-06T09:44:05.860Z,14.21
2024-03-06T09:46:45.105Z,14.27
2024-03-06T09:49:24.347Z,14.28
2024-03-06T09:52:02.831Z,14.29
2024-03-06T09:54:49.489Z,14.29
2024-03-06T09:57:24.954Z,14.32
2024-03-06T10:00:21.581Z,14.33
2024-03-06T10:03:12.267Z,14.36
2024-03-06T10:05:55.667Z,14.36
2024-03-06T10:08:35.481Z,14.39
2024-03-06T10:11:14.395Z,14.37
2024-03-06T10:13:58.662Z,14.50
2024-03-06T10:16:38.547Z,14.50
2024-03-06T10:19:53.448Z,14.49
2024-03-06T10:22:42.768Z,14.55
2024-03-06T10:25:28.135Z,14.53
2024-03-06T10:28:20.273Z,14.57
2024-03-06T10:31:00.276Z,14.63
2024-03-06T10:33:44.440Z,14.62
2024-03-06T10:36:28.489Z,14.64
2024-03-06T10:39:12.162Z,14.63
2024-03-06T10:41:48.817Z,14.71
2024-03-06T10:44:38.072Z,14.73
2024-03-06T10:47:19.452Z,14.76
2024-03-06T10:50:11.725Z,14.86
2024-03-06T10:52:57.931Z,14.83
2024-03-06T10:55:42.162Z,14.94
2024-03-06T10:58:18.355Z,14.99
2024-03-06T11:00:52.627Z,15.14
2024-03-06T11:03:37.298Z,15.27
2024-03-06T11:06:26.055Z,15.34
2024-03-06T11:09:17.833Z,15.52
2024-03-06T11:12:06.535Z,15.57
2024-03-06T11:14:58.241Z,15.62
2024-03-06T11:17:35.790Z,15.74
2024-03-06T11:20:30.364Z,15.85
2024-03-06T11:23:26.613Z,15.90
2024-03-06T11:26:19.905Z,16.00
2024-03-06T11:28:55.045Z,16.19
2024-03-06T11:31:43.203Z,16.25
2024-03-06T11:34:21.568Z,16.39
2024-03-06T11:37:11.314Z,16.45
2024-03-06T11:40:03.591Z,16.49
2024-03-06T11:42:54.767Z,16.58
2024-03-06T11:45:32.597Z,16.67
2024-03-06T11:48:28.939Z,16.69
2024-03-06T11:51:11.205Z,16.87
2024-03-06T11:53:50.670Z,16.91
2024-03-06T11:56:33.746Z,17.00
2024-03-06T11:59:09.237Z,17.06
2024-03-06T12:01:51.054Z,17.14
2024-03-06T12:04:30.505Z,17.25
2024-03-06T12:07:25.232Z,17.29
2024-03-06T12:10:02.727Z,17.39
2024-03-06T12:12:56.978Z,17.38
2024-03-06T12:15:38.258Z,17.32
2024-03-06T12:18:14.675Z,17.35
2024-03-06T12:20:54.390Z,17.42
2024-03-06T12:23:44.827Z,17.53
2024-03-06T12:26:27.355Z,17.62
2024-03-06T12:29:23.754Z,17.68
2024-03-06T12:31:59.952Z,17.77
2024-03-06T12:34:40.399Z,17.88
2024-03-06T12:37:21.352Z,17.91
2024-03-06T12:40:03.785Z,17.90
2024-03-06T12:42:46.249Z,18.01
2024-03-06T12:45:32.449Z,18.05
2024-03-06T12:48:13.274Z,18.18
2024-03-06T12:50:55.231Z,18.20
2024-03-06T12:53:35.453Z,18.34
2024-03-06T12:56:24.891Z,18.37
2024-03-06T12:59:15.724Z,18.42
2024-03-06T13:01:59.336Z,18.54
2024-03-06T13:04:41.069Z,18.60
2024-03-06T13:07:19.809Z,18.49
2024-03-06T13:09:56.156Z,18.43
2024-03-06T13:12:31.489Z,18.25
2024-03-06T13:15:14.149Z,18.14
2024-03-06T13:18:05.741Z,18.00
2024-03-06T13:20:44.469Z,17.86
2024-03-06T13:23:23.285Z,17.70
2024-03-06T13:26:04.007Z,17.17
2024-03-06T13:28:39.977Z,16.60
2024-03-06T13:31:27.149Z,15.62
2024-03-06T13:34:08.054Z,15.36
2024-03-06T13:36:39.234Z,15.09
2024-03-06T13:39:16.969Z,14.89
2024-03-06T13:41:56.416Z,14.73
2024-03-06T13:44:50.382Z,14.57
2024-03-06T13:47:26.449Z,14.08
2024-03-06T13:50:17.465Z,14.10
2024-03-06T13:52:58.748Z,14.17
2024-03-06T13:55:37.190Z,14.25
2024-03-06T13:58:30.486Z,14.20
2024-03-06T14:01:08.169Z,14.26
2024-03-06T14:03:43.392Z,14.38
2024-03-06T14:06:30.945Z,14.55
2024-03-06T14:09:15.019Z,14.73
2024-03-06T14:11:54.450Z,14.91
2024-03-06T14:14:32.246Z,15.00
2024-03-06T14:17:15.352Z,15.22
2024-03-06T14:19:50.946Z,15.34
2024-03-06T14:22:42.724Z,15.41
2024-03-06T14:25:42.327Z,15.52
2024-03-06T14:28:19.848Z,15.63
2024-03-06T14:31:00.302Z,15.73
2024-03-06T14:33:40.862Z,15.84
2024-03-06T14:36:26.365Z,15.98
2024-03-06T14:39:20.172Z,16.05
2024-03-06T14:42:06.605Z,16.09
2024-03-06T14:44:51.515Z,16.07
2024-03-06T14:47:36.767Z,16.24
2024-03-06T14:50:21.121Z,16.28
2024-03-06T14:52:52.857Z,16.34
2024-03-06T14:55:35.551Z,16.38
2024-03-06T14:58:21.168Z,16.46
2024-03-06T15:01:03.471Z,16.49
2024-03-06T15:03:45.944Z,16.52
2024-03-06T15:06:27.830Z,16.60
2024-03-06T15:09:11.768Z,16.66
2024-03-06T15:12:00.620Z,16.74
2024-03-06T15:14:46.999Z,16.75
2024-03-06T15:17:23.224Z,16.80
2024-03-06T15:20:03.800Z,16.81
2024-03-06T15:22:43.492Z,16.86
2024-03-06T15:25:30.090Z,16.88
2024-03-06T15:28:26.528Z,16.92
2024-03-06T15:31:15.473Z,16.91
2024-03-06T15:33:52.600Z,17.01
2024-03-06T15:36:33.435Z,17.02
2024-03-06T15:39:11.706Z,17.08
2024-03-06T15:41:53.521Z,17.11
2024-03-06T15:44:40.022Z,17.09
2024-03-06T15:47:24.341Z,17.07
2024-03-06T15:50:05.348Z,16.96
2024-03-06T15:52:37.331Z,16.90
2024-03-06T15:55:25.652Z,16.84
2024-03-06T15:57:58.089Z,16.85
2024-03-06T16:01:01.248Z,16.77
2024-03-06T16:03:48.503Z,16.69
2024-03-06T16:06:39.753Z,16.64
2024-03-06T16:09:30.601Z,16.54
2024-03-06T16:12:15.268Z,16.45
2024-03-06T16:14:52.657Z,16.32
2024-03-06T16:17:34.892Z,16.24
2024-03-06T16:20:28.352Z,16.17
2024-03-06T16:23:11.969Z,16.07
2024-03-06T16:25:54.119Z,15.99
2024-03-06T16:28:30.252Z,15.90
2024-03-06T16:31:10.965Z,15.84
2024-03-06T16:33:56.608Z,15.72
2024-03-06T16:36:29.464Z,15.64
2024-03-06T16:39:17.882Z,15.58
2024-03-06T16:41:56.767Z,15.50
2024-03-06T16:44:43.459Z,15.46
2024-03-06T16:47:32.865Z,15.41
2024-03-06T16:50:21.483Z,15.32
2024-03-06T16:52:58.333Z,15.29
2024-03-06T16:55:39.584Z,15.21
2024-03-06T16:58:21.793Z,15.12
2024-03-06T17:01:02.076Z,15.03
2024-03-06T17:03:41.530Z,14.98
2024-03-06T17:06:33.311Z,14.92
2024-03-06T17:09:12.759Z,14.85
2024-03-06T17:12:06.224Z,14.72
2024-03-06T17:14:54.522Z,14.67
2024-03-06T17:17:41.468Z,14.50
2024-03-06T17:20:28.182Z,14.48
2024-03-06T17:23:20.202Z,14.45
2024-03-06T17:25:58.259Z,14.37
2024-03-06T17:28:52.346Z,14.33
2024-03-06T17:31:33.806Z,14.28
2024-03-06T17:34:17.550Z,14.23
2024-03-06T17:36:54.050Z,14.18
2024-03-06T17:39:37.519Z,14.15
2024-03-06T17:42:18.905Z,14.12
2024-03-06T17:44:59.957Z,14.04
2024-03-06T17:47:39.857Z,14.02
2024-03-06T17:50:14.465Z,13.93
2024-03-06T17:53:02.079Z,13.92
2024-03-06T17:55:45.775Z,13.88
2024-03-06T17:58:40.275Z,13.88
2024-03-06T18:01:19.237Z,13.80
2024-03-06T18:04:02.092Z,13.80
2024-03-06T18:06:37.148Z,13.77
2024-03-06T18:09:19.123Z,13.77
2024-03-06T18:12:13.749Z,13.73
2024-03-06T18:14:47.806Z,13.70
2024-03-06T18:17:24.243Z,13.71
2024-03-06T18:20:07.582Z,13.63
2024-03-06T18:22:54.640Z,13.63
2024-03-06T18:25:35.311Z,13.61
2024-03-06T18:28:21.787Z,13.57
2024-03-06T18:31:02.576Z,13.54
2024-03-06T18:33:39.943Z,13.49
2024-03-06T18:36:15.270Z,13.41
2024-03-06T18:38:58.428Z,13.35
2024-03-06T18:41:35.056Z,13.31
2024-03-06T18:44:17.037Z,13.24
2024-03-06T18:47:00.013Z,13.19
2024-03-06T18:49:53.930Z,13.14
2024-03-06T18:52:32.894Z,13.05
2024-03-06T18:55:14.184Z,13.07
2024-03-06T18:58:05.868Z,13.04
2024-03-06T19:00:58.462Z,13.05
2024-03-06T19:03:34.163Z,13.06
2024-03-06T19:06:24.873Z,13.00
2024-03-06T19:09:04.887Z,12.93
2024-03-06T19:11:42.452Z,12.81
2024-03-06T19:14:25.188Z,12.90
2024-03-06T19:17:22.080Z,12.77
2024-03-06T19:20:02.479Z,12.81
2024-03-06T19:22:34.680Z,12.76
2024-03-06T19:25:19.905Z,12.73
2024-03-06T19:27:59.095Z,12.69
2024-03-06T19:30:34.287Z,12.66
2024-03-06T19:33:26.908Z,12.57
2024-03-06T19:36:11.783Z,12.51
2024-03-06T19:38:53.999Z,12.49
2024-03-06T19:41:33.270Z,12.46
2024-03-06T19:44:10.316Z,12.45
2024-03-06T19:47:11.121Z,12.48
2024-03-06T19:49:58.936Z,12.45
2024-03-06T19:52:45.510Z,12.47
2024-03-06T19:55:24.471Z,12.50
2024-03-06T19:58:00.533Z,12.50
2024-03-06T20:00:35.762Z,12.52
2024-03-06T20:03:16.239Z,12.54
2024-03-06T20:05:56.757Z,12.52
2024-03-06T20:08:37.034Z,12.52
2024-03-06T20:11:14.841Z,12.52
2024-03-06T20:14:14.211Z,12.53
2024-03-06T20:16:47.057Z,12.53
2024-03-06T20:19:34.145Z,12.51
2024-03-06T20:22:24.276Z,12.43
2024-03-06T20:25:02.583Z,12.46
2024-03-06T20:27:39.466Z,12.37
2024-03-06T20:30:25.846Z,12.33
2024-03-06T20:33:08.511Z,12.25
2024-03-06T20:35:50.560Z,12.09
2024-03-06T20:38:35.710Z,11.95
2024-03-06T20:41:16.397Z,11.94
2024-03-06T20:44:04.180Z,11.91
2024-03-06T20:46:36.262Z,11.69
2024-03-06T20:49:10.164Z,11.58
2024-03-06T20:51:56.570Z,11.43
2024-03-06T20:54:43.789Z,11.35
2024-03-06T20:57:28.649Z,11.42
2024-03-06T21:00:14.008Z,11.48
2024-03-06T21:02:55.791Z,11.46
2024-03-06T21:05:53.282Z,11.47
2024-03-06T21:08:35.542Z,11.50
2024-03-06T21:11:27.100Z,11.58
2024-03-06T21:14:03.355Z,11.60
2024-03-06T21:16:40.856Z,11.64
2024-03-06T21:19:26.530Z,11.57
2024-03-06T21:22:00.453Z,11.60
2024-03-06T21:24:43.159Z,11.58
2024-03-06T21:27:31.457Z,11.53
2024-03-06T21:30:10.116Z,11.58
2024-03-06T21:32:59.851Z,11.56
2024-03-06T21:35:41.529Z,11.56
2024-03-06T21:38:40.441Z,11.53
2024-03-06T21:41:22.818Z,11.39
2024-03-06T21:44:09.960Z,11.38
2024-03-06T21:46:48.310Z,11.38
2024-03-06T21:49:24.616Z,11.38
2024-03-06T21:52:05.363Z,11.37
2024-03-06T21:54:50.617Z,11.33
2024-03-06T21:57:29.591Z,11.31
2024-03-06T22:00:26.137Z,11.29
2024-03-06T22:03:20.588Z,11.21
2024-03-06T22:05:53.733Z,11.19
2024-03-06T22:08:47.751Z,11.19
2024-03-06T22:11:26.932Z,11.15
2024-03-06T22:14:07.357Z,11.16
2024-03-06T22:16:48.607Z,11.15
2024-03-06T22:19:25.700Z,11.13
2024-03-06T22:22:08.896Z,11.19
2024-03-06T22:24:41.615Z,11.21
2024-03-06T22:27:21.703Z,11.23
2024-03-06T22:30:04.073Z,11.19
2024-03-06T22:32:51.035Z,11.23
2024-03-06T22:35:30.807Z,11.26
2024-03-06T22:38:11.864Z,11.21
2024-03-06T22:41:08.481Z,11.12
2024-03-06T22:43:46.087Z,11.31
2024-03-06T22:46:22.522Z,11.30
2024-03-06T22:49:12.677Z,11.31
2024-03-06T22:51:54.247Z,11.32
2024-03-06T22:54:34.762Z,11.27
2024-03-06T22:57:14.084Z,11.25
2024-03-06T22:59:58.792Z,11.17
2024-03-06T23:02:38.716Z,11.14
2024-03-06T23:05:18.296Z,11.10
2024-03-06T23:08:01.262Z,11.04
2024-03-06T23:10:41.039Z,11.02
2024-03-06T23:13:21.353Z,10.99
2024-03-06T23:16:04.246Z,10.93
2024-03-06T23:18:46.473Z,10.94
2024-03-06T23:21:40.247Z,10.90
2024-03-06T23:24:18.016Z,10.90
2024-03-06T23:26:51.473Z,10.93
2024-03-06T23:29:22.342Z,11.00
2024-03-06T23:32:10.753Z,10.91
2024-03-06T23:34:49.656Z,10.98
2024-03-06T23:37:33.812Z,11.02
2024-03-06T23:40:20.239Z,11.00
2024-03-06T23:43:07.929Z,11.01
2024-03-06T23:45:43.684Z,11.00
2024-03-06T23:48:17.890Z,10.98
2024-03-06T23:51:10.328Z,10.97
2024-03-06T23:53:57.912Z,10.93
2024-03-06T23:56:36.994Z,10.75
2024-03-06T23:59:19.548Z,10.83
